THY2521 LTFM-EDDK
Flight info
| Callsign | THY2521 |
|---|---|
| Flight time | N/A |
| Altitude | 38000 |
| Route | VADEN N618 BAKLO DCT XANEX DCT UTEKA DCT BABIT DCT SASAL DCT DEXIT DCT AKOSI DCT PILAM T843 DEMAB T842 EBANA T841 ERNEP ERNEP1V |
| Aircraft | B77W/H-SDE1E2E3FGHIJ2J3J4J5M1RWXY/LB1D1 |
Departure
| Time | N/A |
|---|---|
| Airport | İstanbul Airport (LTFM) |
Arrival
| Time | 2026-02-17 11:05 |
|---|---|
| Airport | Cologne Bonn Airport (EDDK) |
| Time | Latitude | Longitude | Altitude | Speed | Heading |
|---|---|---|---|---|---|
| 2026-02-17 09:37 | 45.95009 | 18.89668 | 37698 ft | 463 kts | 307° |
| 2026-02-17 09:38 | 45.97055 | 18.86091 | 37697 ft | 463 kts | 307° |
| 2026-02-17 09:38 | 46.01173 | 18.78970 | 37701 ft | 463 kts | 308° |
| 2026-02-17 09:39 | 46.07335 | 18.68256 | 37710 ft | 463 kts | 307° |
| 2026-02-17 09:39 | 46.11428 | 18.61081 | 37711 ft | 463 kts | 307° |
| 2026-02-17 09:40 | 46.15511 | 18.53899 | 37714 ft | 463 kts | 307° |
| 2026-02-17 09:40 | 46.19588 | 18.46707 | 37716 ft | 463 kts | 307° |
| 2026-02-17 09:41 | 46.23663 | 18.39502 | 37716 ft | 463 kts | 307° |
| 2026-02-17 09:41 | 46.27732 | 18.32291 | 37718 ft | 463 kts | 307° |
| 2026-02-17 09:42 | 46.31795 | 18.25071 | 37724 ft | 462 kts | 307° |
| 2026-02-17 09:43 | 46.37874 | 18.14234 | 37725 ft | 462 kts | 307° |
| 2026-02-17 09:43 | 46.41889 | 18.07052 | 37730 ft | 461 kts | 307° |
| 2026-02-17 09:44 | 46.45921 | 17.99821 | 37728 ft | 461 kts | 307° |
| 2026-02-17 09:44 | 46.49943 | 17.92589 | 37730 ft | 460 kts | 307° |
| 2026-02-17 09:45 | 46.53958 | 17.85351 | 37734 ft | 460 kts | 307° |
| 2026-02-17 09:45 | 46.57966 | 17.78106 | 37731 ft | 460 kts | 307° |
| 2026-02-17 09:46 | 46.61966 | 17.70858 | 37732 ft | 460 kts | 307° |
| 2026-02-17 09:46 | 46.65973 | 17.63577 | 37739 ft | 460 kts | 307° |
| 2026-02-17 09:47 | 46.71964 | 17.52657 | 37742 ft | 460 kts | 307° |
| 2026-02-17 09:47 | 46.75946 | 17.45373 | 37746 ft | 460 kts | 307° |
| 2026-02-17 09:48 | 46.79927 | 17.38074 | 37746 ft | 459 kts | 307° |
| 2026-02-17 09:48 | 46.83870 | 17.30824 | 37754 ft | 459 kts | 307° |
| 2026-02-17 09:49 | 46.87837 | 17.23510 | 37747 ft | 459 kts | 307° |
| 2026-02-17 09:49 | 46.91799 | 17.16188 | 37749 ft | 459 kts | 307° |
| 2026-02-17 09:50 | 46.95755 | 17.08855 | 37746 ft | 459 kts | 307° |
| 2026-02-17 09:51 | 47.01678 | 16.97842 | 37747 ft | 459 kts | 307° |
| 2026-02-17 09:51 | 47.05626 | 16.90475 | 37745 ft | 459 kts | 307° |
| 2026-02-17 09:52 | 47.09566 | 16.83105 | 37744 ft | 459 kts | 307° |
| 2026-02-17 09:52 | 47.13501 | 16.75724 | 37739 ft | 459 kts | 307° |
| 2026-02-17 09:53 | 47.17428 | 16.68337 | 37737 ft | 459 kts | 307° |
| 2026-02-17 09:53 | 47.21347 | 16.60945 | 37735 ft | 458 kts | 307° |
| 2026-02-17 09:54 | 47.25262 | 16.53542 | 37726 ft | 458 kts | 307° |
| 2026-02-17 09:54 | 47.29170 | 16.46146 | 37725 ft | 458 kts | 307° |
| 2026-02-17 09:55 | 47.35238 | 16.35291 | 37722 ft | 457 kts | 309° |
| 2026-02-17 09:55 | 47.39308 | 16.28088 | 37711 ft | 457 kts | 308° |
| 2026-02-17 09:56 | 47.43357 | 16.20858 | 37712 ft | 456 kts | 308° |
| 2026-02-17 09:56 | 47.47390 | 16.13611 | 37704 ft | 456 kts | 308° |
| 2026-02-17 09:57 | 47.51400 | 16.06376 | 37699 ft | 455 kts | 308° |
| 2026-02-17 09:57 | 47.54737 | 16.00342 | 37701 ft | 455 kts | 308° |
| 2026-02-17 09:58 | 47.59388 | 15.91913 | 37677 ft | 455 kts | 308° |
| 2026-02-17 09:59 | 47.64739 | 15.82181 | 37683 ft | 455 kts | 308° |
| 2026-02-17 09:59 | 47.68730 | 15.74902 | 37687 ft | 455 kts | 308° |
| 2026-02-17 10:00 | 47.72711 | 15.67621 | 37716 ft | 454 kts | 308° |
| 2026-02-17 10:00 | 47.76701 | 15.60302 | 37726 ft | 458 kts | 308° |
| 2026-02-17 10:01 | 47.80713 | 15.52926 | 37706 ft | 456 kts | 308° |
| 2026-02-17 10:01 | 47.84701 | 15.45574 | 37729 ft | 459 kts | 308° |
| 2026-02-17 10:02 | 47.88726 | 15.38129 | 37704 ft | 459 kts | 308° |
| 2026-02-17 10:02 | 47.92716 | 15.30731 | 37742 ft | 461 kts | 308° |
| 2026-02-17 10:03 | 47.98810 | 15.19392 | 37738 ft | 472 kts | 308° |
| 2026-02-17 10:03 | 48.02933 | 15.11696 | 37735 ft | 476 kts | 308° |
| 2026-02-17 10:04 | 48.07066 | 15.03956 | 37739 ft | 477 kts | 308° |
| 2026-02-17 10:04 | 48.11188 | 14.96218 | 37739 ft | 471 kts | 308° |
| 2026-02-17 10:05 | 48.15223 | 14.88618 | 37744 ft | 465 kts | 308° |
| 2026-02-17 10:05 | 48.19237 | 14.81038 | 37743 ft | 464 kts | 308° |
| 2026-02-17 10:06 | 48.23242 | 14.73454 | 37745 ft | 463 kts | 308° |
| 2026-02-17 10:07 | 48.29195 | 14.62141 | 37743 ft | 462 kts | 308° |
| 2026-02-17 10:07 | 48.33266 | 14.54665 | 37749 ft | 462 kts | 310° |
| 2026-02-17 10:08 | 48.37519 | 14.47446 | 37755 ft | 461 kts | 311° |
| 2026-02-17 10:08 | 48.41785 | 14.40243 | 37746 ft | 461 kts | 311° |
| 2026-02-17 10:09 | 48.46016 | 14.33011 | 37754 ft | 460 kts | 310° |
| 2026-02-17 10:09 | 48.50231 | 14.25740 | 37748 ft | 460 kts | 310° |
| 2026-02-17 10:10 | 48.54437 | 14.18454 | 37744 ft | 461 kts | 310° |
| 2026-02-17 10:10 | 48.58641 | 14.11154 | 37743 ft | 461 kts | 310° |
| 2026-02-17 10:11 | 48.64955 | 14.00156 | 37737 ft | 461 kts | 310° |
| 2026-02-17 10:11 | 48.69154 | 13.92815 | 37746 ft | 462 kts | 310° |
| 2026-02-17 10:12 | 48.73349 | 13.85463 | 37760 ft | 461 kts | 310° |
| 2026-02-17 10:12 | 48.77543 | 13.78090 | 37768 ft | 462 kts | 310° |
| 2026-02-17 10:13 | 48.81733 | 13.70705 | 37758 ft | 462 kts | 310° |
| 2026-02-17 10:13 | 48.85890 | 13.63358 | 37766 ft | 462 kts | 310° |
| 2026-02-17 10:14 | 48.90073 | 13.55942 | 37745 ft | 462 kts | 310° |
| 2026-02-17 10:15 | 48.96333 | 13.44809 | 37754 ft | 461 kts | 310° |
| 2026-02-17 10:15 | 49.00492 | 13.37384 | 37779 ft | 461 kts | 310° |
| 2026-02-17 10:16 | 49.04641 | 13.29958 | 37768 ft | 460 kts | 310° |
| 2026-02-17 10:16 | 49.08784 | 13.22520 | 37783 ft | 459 kts | 310° |
| 2026-02-17 10:17 | 49.12901 | 13.15108 | 37767 ft | 459 kts | 310° |
| 2026-02-17 10:17 | 49.17029 | 13.07656 | 37789 ft | 458 kts | 309° |
| 2026-02-17 10:18 | 49.21142 | 13.00210 | 37787 ft | 459 kts | 309° |
| 2026-02-17 10:18 | 49.25256 | 12.92742 | 37795 ft | 458 kts | 309° |
| 2026-02-17 10:19 | 49.31419 | 12.81513 | 37792 ft | 459 kts | 309° |
| 2026-02-17 10:19 | 49.35523 | 12.74009 | 37781 ft | 459 kts | 309° |
| 2026-02-17 10:20 | 49.39622 | 12.66492 | 37769 ft | 459 kts | 309° |
| 2026-02-17 10:20 | 49.43682 | 12.59027 | 37772 ft | 460 kts | 309° |
| 2026-02-17 10:21 | 49.47787 | 12.51455 | 37794 ft | 459 kts | 309° |
| 2026-02-17 10:21 | 49.51875 | 12.43894 | 37773 ft | 460 kts | 309° |
| 2026-02-17 10:22 | 49.55952 | 12.36332 | 37766 ft | 460 kts | 309° |
| 2026-02-17 10:23 | 49.62081 | 12.24922 | 37759 ft | 460 kts | 309° |
| 2026-02-17 10:23 | 49.66149 | 12.17321 | 37775 ft | 460 kts | 309° |
| 2026-02-17 10:24 | 49.70221 | 12.09693 | 37773 ft | 459 kts | 309° |
| 2026-02-17 10:24 | 49.74297 | 12.02110 | 37758 ft | 459 kts | 309° |
| 2026-02-17 10:25 | 49.78409 | 11.94528 | 37771 ft | 459 kts | 309° |
| 2026-02-17 10:25 | 49.82515 | 11.86932 | 37759 ft | 459 kts | 309° |
| 2026-02-17 10:26 | 49.86599 | 11.79339 | 37754 ft | 459 kts | 309° |
| 2026-02-17 10:26 | 49.90686 | 11.71712 | 37784 ft | 459 kts | 309° |
| 2026-02-17 10:27 | 49.96789 | 11.60282 | 37774 ft | 459 kts | 309° |
| 2026-02-17 10:27 | 50.00867 | 11.52616 | 37790 ft | 459 kts | 309° |
| 2026-02-17 10:28 | 50.04932 | 11.44954 | 37767 ft | 459 kts | 309° |
| 2026-02-17 10:28 | 50.08985 | 11.37291 | 37782 ft | 459 kts | 308° |
| 2026-02-17 10:29 | 50.13033 | 11.29615 | 37769 ft | 458 kts | 308° |
| 2026-02-17 10:29 | 50.17063 | 11.21921 | 37771 ft | 458 kts | 307° |
| 2026-02-17 10:30 | 50.20460 | 11.13523 | 37764 ft | 458 kts | 296° |
| 2026-02-17 10:31 | 50.24403 | 10.99960 | 37759 ft | 458 kts | 295° |
| 2026-02-17 10:31 | 50.27589 | 10.91416 | 37763 ft | 458 kts | 304° |
| 2026-02-17 10:32 | 50.31642 | 10.83653 | 37772 ft | 458 kts | 311° |
| 2026-02-17 10:32 | 50.35897 | 10.76315 | 37765 ft | 459 kts | 311° |
| 2026-02-17 10:33 | 50.40187 | 10.68901 | 37754 ft | 459 kts | 311° |
| 2026-02-17 10:33 | 50.44403 | 10.61525 | 37739 ft | 447 kts | 310° |
| 2026-02-17 10:34 | 50.48511 | 10.54285 | 37743 ft | 443 kts | 310° |
| 2026-02-17 10:34 | 50.52593 | 10.47061 | 37747 ft | 441 kts | 310° |
| 2026-02-17 10:35 | 50.58726 | 10.36175 | 37748 ft | 441 kts | 310° |
| 2026-02-17 10:35 | 50.62768 | 10.28978 | 37747 ft | 442 kts | 310° |
| 2026-02-17 10:36 | 50.66826 | 10.21731 | 37754 ft | 443 kts | 310° |
| 2026-02-17 10:36 | 50.70913 | 10.14414 | 37754 ft | 444 kts | 310° |
| 2026-02-17 10:37 | 50.74993 | 10.07086 | 37755 ft | 445 kts | 310° |
| 2026-02-17 10:37 | 50.79077 | 9.99730 | 37756 ft | 445 kts | 310° |
| 2026-02-17 10:38 | 50.83159 | 9.92355 | 37751 ft | 446 kts | 309° |
| 2026-02-17 10:39 | 50.89282 | 9.81256 | 37753 ft | 446 kts | 309° |
| 2026-02-17 10:39 | 50.93280 | 9.73765 | 37750 ft | 444 kts | 303° |
| 2026-02-17 10:40 | 50.96115 | 9.65137 | 37767 ft | 442 kts | 291° |
| 2026-02-17 10:40 | 50.97663 | 9.55676 | 37775 ft | 443 kts | 281° |
| 2026-02-17 10:41 | 50.98776 | 9.46073 | 37751 ft | 443 kts | 282° |
| 2026-02-17 10:41 | 50.99367 | 9.41192 | 36973 ft | 454 kts | 282° |
| 2026-02-17 10:41 | 50.99957 | 9.36347 | 36314 ft | 441 kts | 282° |
| 2026-02-17 10:41 | 51.00340 | 9.33196 | 35823 ft | 434 kts | 282° |
| 2026-02-17 10:42 | 51.00903 | 9.28555 | 35072 ft | 425 kts | 282° |
| 2026-02-17 10:42 | 51.01461 | 9.23933 | 34334 ft | 424 kts | 282° |
| 2026-02-17 10:42 | 51.02013 | 9.19351 | 33467 ft | 419 kts | 282° |
| 2026-02-17 10:43 | 51.03114 | 9.10155 | 31761 ft | 433 kts | 281° |
| 2026-02-17 10:43 | 51.03672 | 9.05459 | 31301 ft | 424 kts | 281° |
| 2026-02-17 10:43 | 51.04129 | 9.00996 | 30890 ft | 395 kts | 276° |
| 2026-02-17 10:43 | 51.04244 | 8.96797 | 30699 ft | 366 kts | 271° |
| 2026-02-17 10:44 | 51.04183 | 8.92908 | 30524 ft | 339 kts | 269° |
| 2026-02-17 10:44 | 51.04009 | 8.89291 | 30212 ft | 322 kts | 264° |
| 2026-02-17 10:44 | 51.03663 | 8.85831 | 29866 ft | 312 kts | 262° |
| 2026-02-17 10:44 | 51.03271 | 8.82497 | 29329 ft | 305 kts | 261° |
| 2026-02-17 10:45 | 51.02879 | 8.79201 | 28655 ft | 301 kts | 261° |
| 2026-02-17 10:45 | 51.02503 | 8.75994 | 27986 ft | 299 kts | 261° |
| 2026-02-17 10:45 | 51.02126 | 8.72763 | 27348 ft | 296 kts | 261° |
| 2026-02-17 10:45 | 51.01753 | 8.69564 | 26739 ft | 293 kts | 261° |
| 2026-02-17 10:46 | 51.01393 | 8.66395 | 26149 ft | 290 kts | 262° |
| 2026-02-17 10:46 | 51.01042 | 8.63220 | 25555 ft | 287 kts | 261° |
| 2026-02-17 10:46 | 51.00699 | 8.60103 | 24965 ft | 285 kts | 261° |
| 2026-02-17 10:47 | 51.00018 | 8.53956 | 23889 ft | 280 kts | 261° |
| 2026-02-17 10:47 | 50.99685 | 8.50956 | 23363 ft | 278 kts | 261° |
| 2026-02-17 10:47 | 50.99348 | 8.47950 | 22755 ft | 276 kts | 261° |
| 2026-02-17 10:47 | 50.99014 | 8.44967 | 22165 ft | 273 kts | 261° |
| 2026-02-17 10:48 | 50.98684 | 8.42019 | 21603 ft | 270 kts | 261° |
| 2026-02-17 10:48 | 50.98357 | 8.39105 | 21050 ft | 267 kts | 261° |
| 2026-02-17 10:48 | 50.98027 | 8.36178 | 20482 ft | 265 kts | 261° |
| 2026-02-17 10:48 | 50.97703 | 8.33320 | 19955 ft | 262 kts | 261° |
| 2026-02-17 10:49 | 50.97376 | 8.30486 | 19432 ft | 260 kts | 258° |
| 2026-02-17 10:49 | 50.96744 | 8.27805 | 18902 ft | 260 kts | 246° |
| 2026-02-17 10:49 | 50.95898 | 8.25279 | 18377 ft | 259 kts | 244° |
| 2026-02-17 10:49 | 50.95017 | 8.22800 | 17860 ft | 257 kts | 244° |
| 2026-02-17 10:50 | 50.94138 | 8.20350 | 17303 ft | 255 kts | 243° |
| 2026-02-17 10:50 | 50.93258 | 8.17913 | 16767 ft | 253 kts | 243° |
| 2026-02-17 10:50 | 50.92385 | 8.15509 | 16267 ft | 251 kts | 243° |
| 2026-02-17 10:51 | 50.90649 | 8.10752 | 15241 ft | 247 kts | 243° |
| 2026-02-17 10:51 | 50.89801 | 8.08442 | 14759 ft | 245 kts | 243° |
| 2026-02-17 10:51 | 50.88944 | 8.06110 | 14276 ft | 244 kts | 243° |
| 2026-02-17 10:51 | 50.88095 | 8.03798 | 13814 ft | 242 kts | 243° |
| 2026-02-17 10:52 | 50.87250 | 8.01500 | 13324 ft | 241 kts | 243° |
| 2026-02-17 10:52 | 50.86409 | 7.99215 | 12821 ft | 239 kts | 243° |
| 2026-02-17 10:52 | 50.85575 | 7.96958 | 12341 ft | 236 kts | 243° |
| 2026-02-17 10:52 | 50.84749 | 7.94721 | 11868 ft | 234 kts | 243° |
| 2026-02-17 10:53 | 50.83931 | 7.92515 | 11376 ft | 232 kts | 243° |
| 2026-02-17 10:53 | 50.83115 | 7.90318 | 10922 ft | 231 kts | 243° |
| 2026-02-17 10:53 | 50.82307 | 7.88143 | 10483 ft | 229 kts | 243° |
| 2026-02-17 10:53 | 50.81503 | 7.85982 | 10011 ft | 227 kts | 243° |
| 2026-02-17 10:54 | 50.80702 | 7.83839 | 9542 ft | 226 kts | 243° |
| 2026-02-17 10:54 | 50.79904 | 7.81712 | 9072 ft | 224 kts | 243° |
| 2026-02-17 10:54 | 50.79115 | 7.79601 | 8625 ft | 222 kts | 243° |
| 2026-02-17 10:55 | 50.77563 | 7.75447 | 7722 ft | 218 kts | 243° |
| 2026-02-17 10:55 | 50.76795 | 7.73390 | 7253 ft | 217 kts | 243° |
| 2026-02-17 10:55 | 50.76032 | 7.71351 | 6838 ft | 215 kts | 243° |
| 2026-02-17 10:55 | 50.75274 | 7.69323 | 6417 ft | 214 kts | 243° |
| 2026-02-17 10:56 | 50.74537 | 7.67351 | 6002 ft | 212 kts | 243° |
| 2026-02-17 10:56 | 50.73789 | 7.65348 | 5514 ft | 211 kts | 243° |
| 2026-02-17 10:56 | 50.73044 | 7.63356 | 5043 ft | 210 kts | 243° |
| 2026-02-17 10:56 | 50.72307 | 7.61385 | 4608 ft | 208 kts | 243° |
| 2026-02-17 10:57 | 50.71574 | 7.59420 | 4154 ft | 207 kts | 243° |
| 2026-02-17 10:57 | 50.70852 | 7.57464 | 3733 ft | 206 kts | 243° |
| 2026-02-17 10:57 | 50.70148 | 7.55534 | 3289 ft | 205 kts | 243° |
| 2026-02-17 10:57 | 50.69451 | 7.53597 | 3025 ft | 192 kts | 243° |
| 2026-02-17 10:58 | 50.68821 | 7.51825 | 2993 ft | 181 kts | 246° |
| 2026-02-17 10:58 | 50.68600 | 7.49913 | 2990 ft | 183 kts | 281° |
| 2026-02-17 10:58 | 50.69088 | 7.48001 | 3000 ft | 195 kts | 292° |
| 2026-02-17 10:59 | 50.70235 | 7.44339 | 2980 ft | 178 kts | 293° |
| 2026-02-17 10:59 | 50.70788 | 7.42597 | 2995 ft | 177 kts | 293° |
| 2026-02-17 10:59 | 50.71424 | 7.40938 | 3004 ft | 178 kts | 300° |
| 2026-02-17 10:59 | 50.72125 | 7.39316 | 2990 ft | 178 kts | 299° |
| 2026-02-17 11:00 | 50.72784 | 7.37721 | 2996 ft | 175 kts | 298° |
| 2026-02-17 11:00 | 50.73431 | 7.36102 | 3047 ft | 167 kts | 297° |
| 2026-02-17 11:00 | 50.74013 | 7.34621 | 2999 ft | 154 kts | 297° |
| 2026-02-17 11:00 | 50.74570 | 7.33179 | 2995 ft | 153 kts | 296° |
| 2026-02-17 11:01 | 50.75175 | 7.31781 | 3004 ft | 161 kts | 305° |
| 2026-02-17 11:01 | 50.75952 | 7.30461 | 2997 ft | 166 kts | 309° |
| 2026-02-17 11:01 | 50.76784 | 7.29208 | 3000 ft | 161 kts | 311° |
| 2026-02-17 11:01 | 50.77601 | 7.28017 | 2911 ft | 164 kts | 311° |
| 2026-02-17 11:02 | 50.78442 | 7.26798 | 2680 ft | 164 kts | 311° |
| 2026-02-17 11:02 | 50.79290 | 7.25578 | 2448 ft | 160 kts | 311° |
| 2026-02-17 11:02 | 50.80079 | 7.24440 | 2206 ft | 148 kts | 311° |
| 2026-02-17 11:03 | 50.81520 | 7.22354 | 1786 ft | 140 kts | 312° |
| 2026-02-17 11:03 | 50.82235 | 7.21320 | 1536 ft | 139 kts | 313° |
| 2026-02-17 11:03 | 50.82948 | 7.20291 | 1227 ft | 139 kts | 314° |
| 2026-02-17 11:03 | 50.83660 | 7.19261 | 935 ft | 138 kts | 314° |
| 2026-02-17 11:04 | 50.84353 | 7.18268 | 727 ft | 132 kts | 314° |
| 2026-02-17 11:04 | 50.85022 | 7.17300 | 542 ft | 131 kts | 313° |
| 2026-02-17 11:04 | 50.85697 | 7.16331 | 326 ft | 125 kts | 312° |
| 2026-02-17 11:04 | 50.86261 | 7.15494 | 299 ft | 94 kts | 316° |
| 2026-02-17 11:05 | 50.86706 | 7.14853 | 275 ft | 80 kts | 317° |
| 2026-02-17 11:05 | 50.86892 | 7.14313 | 262 ft | 28 kts | 274° |
| 2026-02-17 11:05 | 50.86901 | 7.14207 | 260 ft | 0 kts | 279° |
| 2026-02-17 11:07 | 50.86905 | 7.14176 | 260 ft | 3 kts | 279° |
| 2026-02-17 11:08 | 50.86909 | 7.14131 | 260 ft | 6 kts | 279° |
| 2026-02-17 11:08 | 50.86916 | 7.14060 | 259 ft | 9 kts | 279° |
| 2026-02-17 11:08 | 50.86939 | 7.13921 | 254 ft | 15 kts | 297° |
| 2026-02-17 11:08 | 50.87013 | 7.13795 | 248 ft | 14 kts | 317° |
| 2026-02-17 11:09 | 50.87086 | 7.13688 | 245 ft | 14 kts | 318° |
| 2026-02-17 11:09 | 50.87160 | 7.13580 | 242 ft | 14 kts | 317° |
| 2026-02-17 11:09 | 50.87234 | 7.13473 | 240 ft | 14 kts | 317° |
| 2026-02-17 11:09 | 50.87309 | 7.13366 | 237 ft | 14 kts | 317° |
| 2026-02-17 11:10 | 50.87383 | 7.13259 | 237 ft | 14 kts | 317° |
| 2026-02-17 11:10 | 50.87457 | 7.13152 | 237 ft | 14 kts | 317° |
| 2026-02-17 11:10 | 50.87531 | 7.13045 | 237 ft | 14 kts | 317° |
| 2026-02-17 11:11 | 50.87678 | 7.12830 | 237 ft | 14 kts | 317° |
| 2026-02-17 11:11 | 50.87752 | 7.12722 | 237 ft | 14 kts | 317° |
| 2026-02-17 11:11 | 50.87831 | 7.12626 | 237 ft | 14 kts | 337° |
| 2026-02-17 11:11 | 50.87929 | 7.12620 | 237 ft | 14 kts | 356° |
| 2026-02-17 11:12 | 50.88011 | 7.12538 | 237 ft | 14 kts | 305° |
| 2026-02-17 11:12 | 50.88064 | 7.12403 | 237 ft | 14 kts | 303° |
| 2026-02-17 11:12 | 50.88115 | 7.12290 | 237 ft | 12 kts | 306° |
| 2026-02-17 11:12 | 50.88160 | 7.12189 | 237 ft | 9 kts | 301° |
| 2026-02-17 11:13 | 50.88146 | 7.12121 | 237 ft | 7 kts | 232° |
| 2026-02-17 11:13 | 50.88119 | 7.12083 | 237 ft | 3 kts | 217° |
| 2026-02-17 11:13 | 50.88113 | 7.12076 | 237 ft | 0 kts | 217° |